sensor_id;sensor_type;location;lat;lon;timestamp;pressure;altitude;pressure_sealevel;temperature;humidity
13553;BME280;6847;48.830;9.116;2023-03-13T06:13:13;97100.00;;;15.26;57.09
13553;BME280;6847;48.830;9.116;2023-03-13T06:19:20;97112.16;;;15.37;57.10
13553;BME280;6847;48.830;9.116;2023-03-13T07:42:12;97111.00;;;15.84;57.05
13553;BME280;6847;48.830;9.116;2023-03-13T07:45:15;97094.47;;;15.81;57.17
13553;BME280;6847;48.830;9.116;2023-03-13T07:48:33;97087.53;;;15.83;57.36
13553;BME280;6847;48.830;9.116;2023-03-13T07:52:26;97085.09;;;15.90;57.15
13553;BME280;6847;48.830;9.116;2023-03-13T07:55:37;97081.72;;;15.94;57.00
13553;BME280;6847;48.830;9.116;2023-03-13T08:01:48;97075.47;;;16.14;57.07
13553;BME280;6847;48.830;9.116;2023-03-13T08:05:06;97069.72;;;16.27;56.93
13553;BME280;6847;48.830;9.116;2023-03-13T08:08:07;97012.59;;;16.02;57.13
13553;BME280;6847;48.830;9.116;2023-03-13T08:11:40;97046.94;;;16.56;56.68
13553;BME280;6847;48.830;9.116;2023-03-13T08:25:48;97046.69;;;17.88;55.46
13553;BME280;6847;48.830;9.116;2023-03-13T08:28:35;97026.75;;;18.16;54.57
13553;BME280;6847;48.830;9.116;2023-03-13T08:31:25;97045.47;;;18.26;54.95
13553;BME280;6847;48.830;9.116;2023-03-13T08:34:25;97033.66;;;18.09;55.15
13553;BME280;6847;48.830;9.116;2023-03-13T08:37:30;97037.97;;;18.10;55.02
13553;BME280;6847;48.830;9.116;2023-03-13T08:40:22;97035.94;;;18.07;55.25
13553;BME280;6847;48.830;9.116;2023-03-13T08:47:14;97047.69;;;17.96;55.51
13553;BME280;6847;48.830;9.116;2023-03-13T08:50:00;97034.72;;;17.81;55.92
13553;BME280;6847;48.830;9.116;2023-03-13T08:52:53;97040.56;;;17.79;55.59
13553;BME280;6847;48.830;9.116;2023-03-13T08:55:40;97059.94;;;17.86;55.77
13553;BME280;6847;48.830;9.116;2023-03-13T08:58:31;97039.88;;;17.82;55.94
13553;BME280;6847;48.830;9.116;2023-03-13T09:01:34;97048.97;;;17.86;55.91
13553;BME280;6847;48.830;9.116;2023-03-13T09:15:02;97043.69;;;18.05;55.29
13553;BME280;6847;48.830;9.116;2023-03-13T09:17:43;97003.34;;;17.90;54.87
13553;BME280;6847;48.830;9.116;2023-03-13T09:20:45;97027.34;;;18.21;55.06
13553;BME280;6847;48.830;9.116;2023-03-13T09:23:41;97030.78;;;18.46;54.39
13553;BME280;6847;48.830;9.116;2023-03-13T09:26:41;97032.59;;;18.98;53.96
13553;BME280;6847;48.830;9.116;2023-03-13T09:29:51;97038.97;;;19.65;52.72
13553;BME280;6847;48.830;9.116;2023-03-13T09:32:42;97050.00;;;19.84;52.77
13553;BME280;6847;48.830;9.116;2023-03-13T09:35:27;97057.41;;;19.64;52.96
13553;BME280;6847;48.830;9.116;2023-03-13T09:38:08;97027.38;;;19.24;53.47
13553;BME280;6847;48.830;9.116;2023-03-13T09:41:19;97052.41;;;19.07;53.99
13553;BME280;6847;48.830;9.116;2023-03-13T09:43:59;97046.56;;;18.93;53.98
13553;BME280;6847;48.830;9.116;2023-03-13T09:46:58;97031.09;;;19.16;53.43
13553;BME280;6847;48.830;9.116;2023-03-13T09:50:10;97030.66;;;19.96;51.99
13553;BME280;6847;48.830;9.116;2023-03-13T09:53:19;97002.53;;;21.48;49.58
13553;BME280;6847;48.830;9.116;2023-03-13T09:56:15;97033.50;;;23.17;47.48
13553;BME280;6847;48.830;9.116;2023-03-13T09:59:14;97020.34;;;23.48;47.66
13553;BME280;6847;48.830;9.116;2023-03-13T10:02:06;97022.91;;;22.86;48.56
13553;BME280;6847;48.830;9.116;2023-03-13T10:05:05;96987.63;;;22.35;49.34
13553;BME280;6847;48.830;9.116;2023-03-13T10:07:37;97030.28;;;22.41;49.49
13553;BME280;6847;48.830;9.116;2023-03-13T10:11:02;97002.53;;;21.74;50.20
13553;BME280;6847;48.830;9.116;2023-03-13T10:13:47;96900.03;;;21.09;50.20
13553;BME280;6847;48.830;9.116;2023-03-13T10:16:31;96998.50;;;22.55;48.49
13553;BME280;6847;48.830;9.116;2023-03-13T10:19:17;96987.97;;;24.03;46.37
13553;BME280;6847;48.830;9.116;2023-03-13T10:22:14;97010.91;;;25.08;45.40
13553;BME280;6847;48.830;9.116;2023-03-13T10:24:56;96997.38;;;24.89;45.93
13553;BME280;6847;48.830;9.116;2023-03-13T10:27:49;97002.25;;;25.63;44.90
13553;BME280;6847;48.830;9.116;2023-03-13T10:30:46;96997.50;;;25.60;45.09
13553;BME280;6847;48.830;9.116;2023-03-13T10:33:24;97004.38;;;24.44;46.67
13553;BME280;6847;48.830;9.116;2023-03-13T10:36:08;96989.53;;;23.46;47.80
13553;BME280;6847;48.830;9.116;2023-03-13T10:45:58;96983.25;;;21.74;48.83
13553;BME280;6847;48.830;9.116;2023-03-13T10:48:40;96993.88;;;21.72;48.80
13553;BME280;6847;48.830;9.116;2023-03-13T10:51:29;96986.28;;;22.56;47.37
13553;BME280;6847;48.830;9.116;2023-03-13T10:54:33;96982.75;;;23.36;46.16
13553;BME280;6847;48.830;9.116;2023-03-13T10:57:18;96972.94;;;23.97;45.18
13553;BME280;6847;48.830;9.116;2023-03-13T11:00:21;96952.75;;;25.15;43.81
13553;BME280;6847;48.830;9.116;2023-03-13T11:09:57;96980.72;;;26.16;43.62
13553;BME280;6847;48.830;9.116;2023-03-13T11:12:53;96960.28;;;24.97;45.18
13553;BME280;6847;48.830;9.116;2023-03-13T11:16:21;96957.00;;;23.76;46.26
13553;BME280;6847;48.830;9.116;2023-03-13T11:22:44;96941.41;;;23.47;46.01
13553;BME280;6847;48.830;9.116;2023-03-13T11:25:45;96953.66;;;24.15;45.56
13553;BME280;6847;48.830;9.116;2023-03-13T11:28:42;96940.47;;;25.37;43.58
13553;BME280;6847;48.830;9.116;2023-03-13T11:31:36;96903.03;;;26.31;41.86
13553;BME280;6847;48.830;9.116;2023-03-13T11:34:15;96913.84;;;26.77;41.53
13553;BME280;6847;48.830;9.116;2023-03-13T11:36:53;96891.84;;;27.48;40.91
13553;BME280;6847;48.830;9.116;2023-03-13T11:39:53;96898.72;;;28.42;40.24
13553;BME280;6847;48.830;9.116;2023-03-13T11:57:39;96857.41;;;27.76;40.55
13553;BME280;6847;48.830;9.116;2023-03-13T12:00:46;96850.34;;;27.68;40.53
13553;BME280;6847;48.830;9.116;2023-03-13T12:03:38;96842.81;;;27.65;40.64
13553;BME280;6847;48.830;9.116;2023-03-13T12:06:44;96831.19;;;27.74;40.12
13553;BME280;6847;48.830;9.116;2023-03-13T12:09:26;96819.38;;;27.66;39.70
13553;BME280;6847;48.830;9.116;2023-03-13T12:12:18;96819.78;;;27.27;39.84
13553;BME280;6847;48.830;9.116;2023-03-13T14:48:00;96435.16;;;28.54;36.34
13553;BME280;6847;48.830;9.116;2023-03-13T14:50:34;96427.28;;;28.68;36.48
13553;BME280;6847;48.830;9.116;2023-03-13T14:53:03;96419.69;;;28.89;36.14
13553;BME280;6847;48.830;9.116;2023-03-13T14:55:38;96415.41;;;28.84;35.93
13553;BME280;6847;48.830;9.116;2023-03-13T14:58:27;96412.63;;;28.84;35.98
13553;BME280;6847;48.830;9.116;2023-03-13T15:00:55;96397.22;;;28.60;35.84
13553;BME280;6847;48.830;9.116;2023-03-13T15:03:42;96384.28;;;28.33;35.75
13553;BME280;6847;48.830;9.116;2023-03-13T15:06:18;96364.00;;;28.13;36.18
13553;BME280;6847;48.830;9.116;2023-03-13T15:08:48;96373.13;;;28.33;35.75
13553;BME280;6847;48.830;9.116;2023-03-13T15:11:24;96366.38;;;28.51;35.63
13553;BME280;6847;48.830;9.116;2023-03-13T15:13:55;96343.81;;;28.65;35.49
13553;BME280;6847;48.830;9.116;2023-03-13T15:16:24;96336.66;;;28.64;35.61
13553;BME280;6847;48.830;9.116;2023-03-13T15:18:53;96330.00;;;28.42;35.22
13553;BME280;6847;48.830;9.116;2023-03-13T15:21:23;96298.00;;;28.14;35.30
13553;BME280;6847;48.830;9.116;2023-03-13T15:23:53;96324.06;;;28.23;35.26
13553;BME280;6847;48.830;9.116;2023-03-13T15:26:21;96306.94;;;28.25;35.27
13553;BME280;6847;48.830;9.116;2023-03-13T15:28:49;96302.16;;;28.25;35.20
13553;BME280;6847;48.830;9.116;2023-03-13T15:31:17;96299.72;;;28.27;34.95
13553;BME280;6847;48.830;9.116;2023-03-13T15:33:54;96275.72;;;27.97;34.97
13553;BME280;6847;48.830;9.116;2023-03-13T15:36:23;96283.66;;;27.79;35.27
13553;BME280;6847;48.830;9.116;2023-03-13T15:38:50;96296.13;;;27.51;35.32
13553;BME280;6847;48.830;9.116;2023-03-13T15:41:19;96284.19;;;27.31;35.20
13553;BME280;6847;48.830;9.116;2023-03-13T15:43:46;96258.84;;;27.06;35.39
13553;BME280;6847;48.830;9.116;2023-03-13T15:46:17;96249.31;;;27.07;35.26
13553;BME280;6847;48.830;9.116;2023-03-13T15:48:44;96243.38;;;27.05;35.16
13553;BME280;6847;48.830;9.116;2023-03-13T15:51:13;96248.59;;;26.79;35.15
13553;BME280;6847;48.830;9.116;2023-03-13T15:53:42;96259.69;;;26.56;35.30
13553;BME280;6847;48.830;9.116;2023-03-13T15:56:13;96156.34;;;25.71;35.46
13553;BME280;6847;48.830;9.116;2023-03-13T15:58:42;96242.66;;;26.31;34.92
13553;BME280;6847;48.830;9.116;2023-03-13T16:01:11;96217.69;;;26.31;34.76
13553;BME280;6847;48.830;9.116;2023-03-13T16:03:39;96234.22;;;26.61;35.08
13553;BME280;6847;48.830;9.116;2023-03-13T16:06:14;96225.63;;;26.75;34.75
13553;BME280;6847;48.830;9.116;2023-03-13T16:08:43;96216.34;;;26.85;35.03
13553;BME280;6847;48.830;9.116;2023-03-13T16:11:12;96218.88;;;26.76;34.99
13553;BME280;6847;48.830;9.116;2023-03-13T16:13:42;96211.41;;;26.50;35.05
13553;BME280;6847;48.830;9.116;2023-03-13T16:16:26;96172.34;;;26.14;35.22
13553;BME280;6847;48.830;9.116;2023-03-13T16:18:56;96203.94;;;26.20;34.92
13553;BME280;6847;48.830;9.116;2023-03-13T16:21:26;96202.38;;;25.92;34.95
13553;BME280;6847;48.830;9.116;2023-03-13T16:23:55;96182.72;;;25.53;35.39
13553;BME280;6847;48.830;9.116;2023-03-13T16:26:23;96171.22;;;25.24;35.58
13553;BME280;6847;48.830;9.116;2023-03-13T16:28:51;96188.88;;;25.03;35.45
13553;BME280;6847;48.830;9.116;2023-03-13T16:31:20;96164.75;;;24.62;35.62
13553;BME280;6847;48.830;9.116;2023-03-13T16:33:47;96186.97;;;24.55;35.68
13553;BME280;6847;48.830;9.116;2023-03-13T16:36:16;96195.44;;;24.34;36.20
13553;BME280;6847;48.830;9.116;2023-03-13T16:38:44;96161.66;;;24.09;35.86
13553;BME280;6847;48.830;9.116;2023-03-13T16:41:17;96171.63;;;23.95;35.89
13553;BME280;6847;48.830;9.116;2023-03-13T16:43:45;96143.41;;;23.67;35.86
13553;BME280;6847;48.830;9.116;2023-03-13T16:46:15;96180.41;;;23.83;36.08
13553;BME280;6847;48.830;9.116;2023-03-13T16:48:42;96150.97;;;23.55;36.35
13553;BME280;6847;48.830;9.116;2023-03-13T16:51:14;96158.09;;;23.53;36.30
13553;BME280;6847;48.830;9.116;2023-03-13T16:53:43;96180.56;;;23.58;36.32
13553;BME280;6847;48.830;9.116;2023-03-13T16:56:17;96179.78;;;23.51;36.43
13553;BME280;6847;48.830;9.116;2023-03-13T16:58:45;96157.78;;;23.33;36.36
13553;BME280;6847;48.830;9.116;2023-03-13T17:01:12;96165.28;;;23.33;36.51
13553;BME280;6847;48.830;9.116;2023-03-13T17:03:39;96132.66;;;23.10;36.62
13553;BME280;6847;48.830;9.116;2023-03-13T17:06:13;96157.81;;;23.22;36.75
13553;BME280;6847;48.830;9.116;2023-03-13T17:08:40;96141.75;;;23.03;36.66
13553;BME280;6847;48.830;9.116;2023-03-13T17:11:10;96089.44;;;22.68;36.91
13553;BME280;6847;48.830;9.116;2023-03-13T17:13:41;96147.66;;;23.05;37.01
13553;BME280;6847;48.830;9.116;2023-03-13T17:16:12;96137.03;;;23.00;37.12
13553;BME280;6847;48.830;9.116;2023-03-13T17:18:39;96148.47;;;22.95;37.22
13553;BME280;6847;48.830;9.116;2023-03-13T17:21:12;96140.63;;;22.90;37.13
13553;BME280;6847;48.830;9.116;2023-03-13T17:23:39;96130.00;;;22.85;37.26
13553;BME280;6847;48.830;9.116;2023-03-13T17:26:18;96125.28;;;22.78;37.25
13553;BME280;6847;48.830;9.116;2023-03-13T17:28:48;96130.00;;;22.74;37.49
13553;BME280;6847;48.830;9.116;2023-03-13T17:31:18;96115.47;;;22.60;37.49
13553;BME280;6847;48.830;9.116;2023-03-13T17:33:46;96122.53;;;22.64;37.32
13553;BME280;6847;48.830;9.116;2023-03-13T17:36:15;96101.28;;;22.54;37.73
13553;BME280;6847;48.830;9.116;2023-03-13T17:38:42;96085.59;;;22.40;37.60
13553;BME280;6847;48.830;9.116;2023-03-13T17:41:10;95981.75;;;21.73;37.70
13553;BME280;6847;48.830;9.116;2023-03-13T17:43:37;96089.91;;;22.41;37.76
13553;BME280;6847;48.830;9.116;2023-03-13T17:46:12;96076.16;;;22.27;37.86
13553;BME280;6847;48.830;9.116;2023-03-13T17:48:39;96078.91;;;22.31;37.78
13553;BME280;6847;48.830;9.116;2023-03-13T17:51:12;96044.31;;;22.12;38.06
13553;BME280;6847;48.830;9.116;2023-03-13T17:53:39;96054.94;;;22.10;38.21
13553;BME280;6847;48.830;9.116;2023-03-13T17:56:11;96064.34;;;22.16;38.22
13553;BME280;6847;48.830;9.116;2023-03-13T17:58:37;96012.03;;;21.88;38.40
13553;BME280;6847;48.830;9.116;2023-03-13T18:01:05;96047.44;;;22.07;38.39
13553;BME280;6847;48.830;9.116;2023-03-13T18:03:33;96038.78;;;22.05;38.12
13553;BME280;6847;48.830;9.116;2023-03-13T18:06:00;96028.94;;;22.04;38.50
13553;BME280;6847;48.830;9.116;2023-03-13T18:08:26;95996.69;;;21.83;38.54
13553;BME280;6847;48.830;9.116;2023-03-13T18:10:53;96026.56;;;22.06;38.37
13553;BME280;6847;48.830;9.116;2023-03-13T18:13:19;96024.22;;;22.08;38.51
13553;BME280;6847;48.830;9.116;2023-03-13T18:15:46;96021.06;;;22.06;38.55
13553;BME280;6847;48.830;9.116;2023-03-13T18:18:15;96014.78;;;22.05;38.71
13553;BME280;6847;48.830;9.116;2023-03-13T18:20:45;96019.50;;;22.05;38.75
13553;BME280;6847;48.830;9.116;2023-03-13T18:23:13;96039.19;;;22.00;38.69
13553;BME280;6847;48.830;9.116;2023-03-13T18:25:40;96058.47;;;21.93;38.94
13553;BME280;6847;48.830;9.116;2023-03-13T18:28:08;96033.28;;;21.27;39.04
13553;BME280;6847;48.830;9.116;2023-03-13T18:30:37;96168.25;;;21.62;39.29
13553;BME280;6847;48.830;9.116;2023-03-13T18:33:06;96148.50;;;21.25;39.95
13553;BME280;6847;48.830;9.116;2023-03-13T18:35:33;96000.94;;;19.91;41.21
13553;BME280;6847;48.830;9.116;2023-03-13T18:38:02;96151.03;;;20.20;42.47
13553;BME280;6847;48.830;9.116;2023-03-13T18:40:30;96190.56;;;19.65;43.32
13553;BME280;6847;48.830;9.116;2023-03-13T18:42:57;96203.09;;;18.95;44.20
13553;BME280;6847;48.830;9.116;2023-03-13T18:45:25;96196.63;;;18.28;45.70
13553;BME280;6847;48.830;9.116;2023-03-13T18:47:52;96168.63;;;17.47;47.22
13553;BME280;6847;48.830;9.116;2023-03-13T18:50:22;96146.56;;;17.36;48.76
13553;BME280;6847;48.830;9.116;2023-03-13T18:52:50;95935.66;;;15.88;50.86
13553;BME280;6847;48.830;9.116;2023-03-13T18:55:19;95995.41;;;15.94;54.39
13553;BME280;6847;48.830;9.116;2023-03-13T18:57:47;96155.72;;;16.67;56.78
13553;BME280;6847;48.830;9.116;2023-03-13T19:00:17;96194.81;;;16.51;58.48
13553;BME280;6847;48.830;9.116;2023-03-13T19:02:44;96169.47;;;16.35;59.94
13553;BME280;6847;48.830;9.116;2023-03-13T19:05:11;96111.50;;;16.26;60.89
13553;BME280;6847;48.830;9.116;2023-03-13T19:07:38;96042.13;;;16.27;61.60
13553;BME280;6847;48.830;9.116;2023-03-13T19:10:16;95952.31;;;15.83;62.25
13553;BME280;6847;48.830;9.116;2023-03-13T19:12:45;96043.25;;;16.26;62.61
13553;BME280;6847;48.830;9.116;2023-03-13T19:15:12;96044.44;;;16.25;63.08
13553;BME280;6847;48.830;9.116;2023-03-13T19:17:40;96053.03;;;16.27;63.55
13553;BME280;6847;48.830;9.116;2023-03-13T19:20:13;96035.84;;;16.26;63.64
13553;BME280;6847;48.830;9.116;2023-03-13T19:22:43;96064.38;;;16.10;63.99
13553;BME280;6847;48.830;9.116;2023-03-13T19:25:11;96111.41;;;16.03;64.41
13553;BME280;6847;48.830;9.116;2023-03-13T19:27:41;96114.41;;;15.98;64.58
13553;BME280;6847;48.830;9.116;2023-03-13T19:30:17;96117.13;;;15.98;64.94
13553;BME280;6847;48.830;9.116;2023-03-13T19:32:44;96126.50;;;15.81;64.96
13553;BME280;6847;48.830;9.116;2023-03-13T19:35:11;96183.34;;;16.11;65.37
13553;BME280;6847;48.830;9.116;2023-03-13T19:37:41;96198.03;;;16.22;65.34
13553;BME280;6847;48.830;9.116;2023-03-13T19:40:16;96188.06;;;16.29;65.49
13553;BME280;6847;48.830;9.116;2023-03-13T19:42:43;96210.00;;;16.33;65.65
13553;BME280;6847;48.830;9.116;2023-03-13T19:45:11;96102.19;;;15.29;65.84
13553;BME280;6847;48.830;9.116;2023-03-13T19:47:41;96237.66;;;16.16;65.95
13553;BME280;6847;48.830;9.116;2023-03-13T19:50:15;96194.03;;;15.84;66.33
13553;BME280;6847;48.830;9.116;2023-03-13T19:52:42;96220.25;;;16.05;66.81
13553;BME280;6847;48.830;9.116;2023-03-13T19:55:09;96177.44;;;15.77;66.80
13553;BME280;6847;48.830;9.116;2023-03-13T19:57:36;96278.97;;;15.99;67.15
13553;BME280;6847;48.830;9.116;2023-03-13T20:00:04;96210.38;;;15.41;67.01
13553;BME280;6847;48.830;9.116;2023-03-13T20:02:33;96324.09;;;15.80;67.53
13553;BME280;6847;48.830;9.116;2023-03-13T20:05:01;96350.28;;;15.69;68.38
13553;BME280;6847;48.830;9.116;2023-03-13T20:07:28;96353.53;;;15.47;69.44
13553;BME280;6847;48.830;9.116;2023-03-13T20:09:56;96280.00;;;14.70;70.33
13553;BME280;6847;48.830;9.116;2023-03-13T20:12:23;96401.66;;;15.03;70.63
13553;BME280;6847;48.830;9.116;2023-03-13T20:14:53;96436.94;;;14.51;70.17
13553;BME280;6847;48.830;9.116;2023-03-13T20:17:20;96446.75;;;13.98;70.60
13553;BME280;6847;48.830;9.116;2023-03-13T20:19:47;96459.22;;;13.57;71.21
13553;BME280;6847;48.830;9.116;2023-03-13T20:22:16;96434.81;;;13.28;71.79
13553;BME280;6847;48.830;9.116;2023-03-13T20:24:43;96448.31;;;13.07;72.69
13553;BME280;6847;48.830;9.116;2023-03-13T20:27:09;96475.06;;;12.96;72.88
13553;BME280;6847;48.830;9.116;2023-03-13T20:29:36;96488.53;;;12.84;72.68
13553;BME280;6847;48.830;9.116;2023-03-13T20:32:03;96472.09;;;12.81;73.34
13553;BME280;6847;48.830;9.116;2023-03-13T20:34:30;96456.94;;;12.80;72.94
13553;BME280;6847;48.830;9.116;2023-03-13T20:36:56;96460.44;;;12.80;74.00
13553;BME280;6847;48.830;9.116;2023-03-13T20:39:26;96458.38;;;12.77;73.32
13553;BME280;6847;48.830;9.116;2023-03-13T20:41:53;96464.94;;;12.76;73.48
13553;BME280;6847;48.830;9.116;2023-03-13T20:44:20;96450.28;;;12.69;74.28
13553;BME280;6847;48.830;9.116;2023-03-13T20:46:47;96450.13;;;12.65;73.60
13553;BME280;6847;48.830;9.116;2023-03-13T20:49:13;96481.06;;;12.81;73.66
13553;BME280;6847;48.830;9.116;2023-03-13T20:51:40;96468.59;;;12.80;74.53
13553;BME280;6847;48.830;9.116;2023-03-13T20:54:07;96452.94;;;12.77;74.30
13553;BME280;6847;48.830;9.116;2023-03-13T20:56:35;96457.72;;;12.80;74.26
13553;BME280;6847;48.830;9.116;2023-03-13T20:59:02;96412.66;;;12.50;74.82
13553;BME280;6847;48.830;9.116;2023-03-13T21:01:30;96455.34;;;12.79;74.37
13553;BME280;6847;48.830;9.116;2023-03-13T21:03:56;96459.50;;;12.76;74.35
13553;BME280;6847;48.830;9.116;2023-03-13T21:06:23;96457.41;;;12.73;75.14
13553;BME280;6847;48.830;9.116;2023-03-13T21:08:51;96443.41;;;12.71;75.18
13553;BME280;6847;48.830;9.116;2023-03-13T21:11:19;96402.16;;;12.78;75.20
13553;BME280;6847;48.830;9.116;2023-03-13T21:13:50;96381.03;;;12.83;75.26
13553;BME280;6847;48.830;9.116;2023-03-13T21:16:17;96417.75;;;12.89;75.09
13553;BME280;6847;48.830;9.116;2023-03-13T21:18:45;96457.38;;;12.90;75.12
13553;BME280;6847;48.830;9.116;2023-03-13T21:21:15;96479.59;;;12.84;75.11
13553;BME280;6847;48.830;9.116;2023-03-13T21:23:47;96458.25;;;12.65;75.60
13553;BME280;6847;48.830;9.116;2023-03-13T21:26:16;96487.28;;;12.82;74.92
13553;BME280;6847;48.830;9.116;2023-03-13T21:28:43;96504.22;;;12.79;75.83
13553;BME280;6847;48.830;9.116;2023-03-13T21:31:15;96465.81;;;12.51;75.40
13553;BME280;6847;48.830;9.116;2023-03-13T21:33:43;96498.34;;;12.68;75.25
13553;BME280;6847;48.830;9.116;2023-03-13T21:36:12;96483.34;;;12.62;75.61
13553;BME280;6847;48.830;9.116;2023-03-13T21:38:40;96445.19;;;12.58;75.36
13553;BME280;6847;48.830;9.116;2023-03-13T21:41:09;96393.81;;;12.53;75.65
13553;BME280;6847;48.830;9.116;2023-03-13T21:43:37;96382.69;;;12.38;76.01
13553;BME280;6847;48.830;9.116;2023-03-13T21:46:07;96416.59;;;12.61;76.49
13553;BME280;6847;48.830;9.116;2023-03-13T21:48:37;96417.09;;;12.63;75.66
13553;BME280;6847;48.830;9.116;2023-03-13T21:51:05;96415.81;;;12.60;75.64
13553;BME280;6847;48.830;9.116;2023-03-13T21:53:35;96408.50;;;12.52;75.61
13553;BME280;6847;48.830;9.116;2023-03-13T21:56:04;96404.50;;;12.50;76.37
13553;BME280;6847;48.830;9.116;2023-03-13T21:58:32;96382.66;;;12.46;76.20
13553;BME280;6847;48.830;9.116;2023-03-13T22:01:00;96361.72;;;12.47;76.39
13553;BME280;6847;48.830;9.116;2023-03-13T22:03:26;96314.19;;;12.41;75.92
13553;BME280;6847;48.830;9.116;2023-03-13T22:05:59;96317.22;;;12.39;76.14
13553;BME280;6847;48.830;9.116;2023-03-13T22:08:26;96311.81;;;12.39;76.91
13553;BME280;6847;48.830;9.116;2023-03-13T22:10:52;96300.78;;;12.36;76.01
13553;BME280;6847;48.830;9.116;2023-03-13T22:13:20;96284.72;;;12.31;75.98
13553;BME280;6847;48.830;9.116;2023-03-13T22:15:47;96307.06;;;12.28;76.86
13553;BME280;6847;48.830;9.116;2023-03-13T22:18:17;96222.59;;;11.62;76.48
13553;BME280;6847;48.830;9.116;2023-03-13T22:20:45;96319.03;;;12.27;76.96
13553;BME280;6847;48.830;9.116;2023-03-13T22:23:13;96302.75;;;12.27;77.45
13553;BME280;6847;48.830;9.116;2023-03-13T22:25:43;96191.16;;;11.69;77.00
13553;BME280;6847;48.830;9.116;2023-03-13T22:28:15;96280.94;;;12.23;76.33
13553;BME280;6847;48.830;9.116;2023-03-13T22:30:42;96259.88;;;12.20;77.18
13553;BME280;6847;48.830;9.116;2023-03-13T22:33:09;96253.66;;;12.19;76.42
13553;BME280;6847;48.830;9.116;2023-03-13T22:35:39;96265.28;;;12.20;77.19
13553;BME280;6847;48.830;9.116;2023-03-13T22:38:07;96250.50;;;12.09;76.65
13553;BME280;6847;48.830;9.116;2023-03-13T22:40:35;96269.72;;;12.24;77.19
13553;BME280;6847;48.830;9.116;2023-03-13T22:43:02;96153.25;;;11.61;76.76
13553;BME280;6847;48.830;9.116;2023-03-13T22:45:29;96251.03;;;12.32;76.39
13553;BME280;6847;48.830;9.116;2023-03-13T22:47:58;96229.88;;;12.16;76.56
13553;BME280;6847;48.830;9.116;2023-03-13T22:50:30;96268.53;;;12.43;76.87
13553;BME280;6847;48.830;9.116;2023-03-13T22:52:56;96291.16;;;12.47;77.31
13553;BME280;6847;48.830;9.116;2023-03-13T22:55:23;96298.19;;;12.48;76.78
13553;BME280;6847;48.830;9.116;2023-03-13T22:57:54;96310.91;;;12.56;77.07
13553;BME280;6847;48.830;9.116;2023-03-13T23:00:21;96314.25;;;12.62;76.35
13553;BME280;6847;48.830;9.116;2023-03-13T23:02:47;96316.81;;;12.58;76.93
13553;BME280;6847;48.830;9.116;2023-03-13T23:05:15;96315.38;;;12.60;76.84
13553;BME280;6847;48.830;9.116;2023-03-13T23:07:44;96317.06;;;12.65;76.80
13553;BME280;6847;48.830;9.116;2023-03-13T23:10:11;96332.25;;;12.66;77.09
13553;BME280;6847;48.830;9.116;2023-03-13T23:12:38;96327.50;;;12.63;76.05
13553;BME280;6847;48.830;9.116;2023-03-13T23:15:10;96337.41;;;12.59;76.27
13553;BME280;6847;48.830;9.116;2023-03-13T23:17:37;96326.41;;;12.55;76.84
13553;BME280;6847;48.830;9.116;2023-03-13T23:20:05;96283.28;;;12.24;76.96
13553;BME280;6847;48.830;9.116;2023-03-13T23:22:37;96310.16;;;12.47;76.88
13553;BME280;6847;48.830;9.116;2023-03-13T23:25:06;96277.00;;;12.41;77.21
13553;BME280;6847;48.830;9.116;2023-03-13T23:27:33;96236.47;;;12.36;77.25
13553;BME280;6847;48.830;9.116;2023-03-13T23:30:00;96202.81;;;12.08;76.40
13553;BME280;6847;48.830;9.116;2023-03-13T23:32:34;96235.78;;;12.18;77.49
13553;BME280;6847;48.830;9.116;2023-03-13T23:35:01;96307.69;;;12.33;77.42
13553;BME280;6847;48.830;9.116;2023-03-13T23:37:29;96191.38;;;11.56;76.78
13553;BME280;6847;48.830;9.116;2023-03-13T23:39:57;96293.22;;;12.20;77.54
13553;BME280;6847;48.830;9.116;2023-03-13T23:42:25;96295.28;;;12.23;77.36
13553;BME280;6847;48.830;9.116;2023-03-13T23:44:53;96315.47;;;12.35;77.42
13553;BME280;6847;48.830;9.116;2023-03-13T23:47:22;96293.03;;;12.26;77.05
13553;BME280;6847;48.830;9.116;2023-03-13T23:49:51;96269.66;;;12.12;77.63
13553;BME280;6847;48.830;9.116;2023-03-13T23:52:18;96307.16;;;12.40;76.97
13553;BME280;6847;48.830;9.116;2023-03-13T23:54:45;96314.19;;;12.41;77.52
13553;BME280;6847;48.830;9.116;2023-03-13T23:57:12;96280.34;;;12.38;77.19
13553;BME280;6847;48.830;9.116;2023-03-13T23:59:39;96273.00;;;12.39;77.17
